sensor_id;sensor_type;location;lat;lon;timestamp;pressure;altitude;pressure_sealevel;temperature;humidity
36834;BME280;48003;52.084;5.224;2023-04-01T00:01:26;99103.0;;;12.06;97.93
36834;BME280;48003;52.084;5.224;2023-04-01T00:03:02;99105.0;;;12.25;95.82
36834;BME280;48003;52.084;5.224;2023-04-01T00:06:16;99101.0;;;12.3;96.55
36834;BME280;48003;52.084;5.224;2023-04-01T00:07:53;99108.0;;;12.17;96.13
36834;BME280;48003;52.084;5.224;2023-04-01T00:09:29;99106.0;;;12.21;95.8
36834;BME280;48003;52.084;5.224;2023-04-01T00:12:42;99105.0;;;12.23;95.84
36834;BME280;48003;52.084;5.224;2023-04-01T00:14:19;99111.0;;;12.16;95.67
36834;BME280;48003;52.084;5.224;2023-04-01T00:15:55;99108.0;;;12.11;96.84
36834;BME280;48003;52.084;5.224;2023-04-01T00:17:32;99110.0;;;12.22;96.28
36834;BME280;48003;52.084;5.224;2023-04-01T00:20:45;99115.0;;;12.62;93.49
36834;BME280;48003;52.084;5.224;2023-04-01T00:22:23;99113.0;;;12.83;92.03
36834;BME280;48003;52.084;5.224;2023-04-01T00:23:59;99112.0;;;12.65;92.82
36834;BME280;48003;52.084;5.224;2023-04-01T00:27:12;99107.0;;;12.36;94.34
36834;BME280;48003;52.084;5.224;2023-04-01T00:28:48;99116.0;;;12.3;93.65
36834;BME280;48003;52.084;5.224;2023-04-01T00:30:25;99115.0;;;12.14;94.92
36834;BME280;48003;52.084;5.224;2023-04-01T00:33:37;99117.0;;;12.04;94.33
36834;BME280;48003;52.084;5.224;2023-04-01T00:35:15;99118.0;;;12.34;93.83
36834;BME280;48003;52.084;5.224;2023-04-01T00:36:52;99118.0;;;12.09;93.56
36834;BME280;48003;52.084;5.224;2023-04-01T00:38:28;99113.0;;;12.18;93.67
36834;BME280;48003;52.084;5.224;2023-04-01T00:42:02;99121.0;;;12.0;93.93
36834;BME280;48003;52.084;5.224;2023-04-01T00:43:39;99119.0;;;12.38;92.66
36834;BME280;48003;52.084;5.224;2023-04-01T00:45:28;99113.0;;;12.17;94.0
36834;BME280;48003;52.084;5.224;2023-04-01T00:47:05;99117.0;;;12.41;92.57
36834;BME280;48003;52.084;5.224;2023-04-01T00:50:22;99121.0;;;12.55;91.55
36834;BME280;48003;52.084;5.224;2023-04-01T00:52:02;99118.0;;;12.42;91.89
36834;BME280;48003;52.084;5.224;2023-04-01T00:53:43;99124.0;;;12.36;91.94
36834;BME280;48003;52.084;5.224;2023-04-01T00:55:22;99128.0;;;12.15;94.01
36834;BME280;48003;52.084;5.224;2023-04-01T00:58:42;99126.0;;;12.13;94.31
36834;BME280;48003;52.084;5.224;2023-04-01T01:00:20;99128.0;;;12.4;93.04
36834;BME280;48003;52.084;5.224;2023-04-01T01:01:56;99133.0;;;12.39;92.88
36834;BME280;48003;52.084;5.224;2023-04-01T01:03:32;99128.0;;;12.16;94.66
36834;BME280;48003;52.084;5.224;2023-04-01T01:06:53;99128.0;;;12.19;94.1
36834;BME280;48003;52.084;5.224;2023-04-01T01:08:46;99130.0;;;11.93;94.38
36834;BME280;48003;52.084;5.224;2023-04-01T01:10:39;99126.0;;;11.88;95.63
36834;BME280;48003;52.084;5.224;2023-04-01T01:12:19;99137.0;;;11.82;94.6
36834;BME280;48003;52.084;5.224;2023-04-01T01:15:44;99137.0;;;11.71;96.2
36834;BME280;48003;52.084;5.224;2023-04-01T01:17:30;99138.0;;;12.11;94.48
36834;BME280;48003;52.084;5.224;2023-04-01T01:19:31;99139.0;;;12.14;94.1
36834;BME280;48003;52.084;5.224;2023-04-01T01:22:02;99140.0;;;11.92;95.6
36834;BME280;48003;52.084;5.224;2023-04-01T01:23:57;99144.0;;;11.76;95.77
36834;BME280;48003;52.084;5.224;2023-04-01T01:26:34;99147.0;;;11.74;95.64
36834;BME280;48003;52.084;5.224;2023-04-01T01:28:45;99143.0;;;12.14;94.24
36834;BME280;48003;52.084;5.224;2023-04-01T01:30:39;99145.0;;;12.07;94.26
36834;BME280;48003;52.084;5.224;2023-04-01T01:33:01;99138.0;;;12.06;93.48
36834;BME280;48003;52.084;5.224;2023-04-01T01:35:20;99142.0;;;11.91;94.28
36834;BME280;48003;52.084;5.224;2023-04-01T01:37:01;99142.0;;;11.83;95.24
36834;BME280;48003;52.084;5.224;2023-04-01T01:40:19;99140.0;;;11.79;95.58
36834;BME280;48003;52.084;5.224;2023-04-01T01:41:57;99141.0;;;11.92;94.37
36834;BME280;48003;52.084;5.224;2023-04-01T01:43:38;99146.0;;;11.93;93.3
36834;BME280;48003;52.084;5.224;2023-04-01T01:46:58;99144.0;;;11.61;94.2
36834;BME280;48003;52.084;5.224;2023-04-01T01:48:35;99145.0;;;11.81;94.98
36834;BME280;48003;52.084;5.224;2023-04-01T01:50:14;99145.0;;;11.55;95.18
36834;BME280;48003;52.084;5.224;2023-04-01T01:51:51;99151.0;;;11.91;94.28
36834;BME280;48003;52.084;5.224;2023-04-01T01:55:24;99148.0;;;11.96;93.53
36834;BME280;48003;52.084;5.224;2023-04-01T01:57:05;99143.0;;;11.96;92.33
36834;BME280;48003;52.084;5.224;2023-04-01T01:58:44;99146.0;;;11.63;94.96
36834;BME280;48003;52.084;5.224;2023-04-01T02:00:22;99146.0;;;11.51;94.93
36834;BME280;48003;52.084;5.224;2023-04-01T02:03:37;99148.0;;;11.7;94.25
36834;BME280;48003;52.084;5.224;2023-04-01T02:05:17;99151.0;;;11.73;94.65
36834;BME280;48003;52.084;5.224;2023-04-01T02:06:58;99153.0;;;11.73;94.03
36834;BME280;48003;52.084;5.224;2023-04-01T02:08:40;99155.0;;;11.68;95.18
36834;BME280;48003;52.084;5.224;2023-04-01T02:12:01;99153.0;;;11.67;95.28
36834;BME280;48003;52.084;5.224;2023-04-01T02:13:42;99157.0;;;11.73;94.54
36834;BME280;48003;52.084;5.224;2023-04-01T02:15:24;99163.0;;;11.37;96.36
36834;BME280;48003;52.084;5.224;2023-04-01T02:17:06;99153.0;;;11.66;95.37
36834;BME280;48003;52.084;5.224;2023-04-01T02:20:25;99165.0;;;11.64;95.75
36834;BME280;48003;52.084;5.224;2023-04-01T02:22:08;99165.0;;;11.34;96.15
36834;BME280;48003;52.084;5.224;2023-04-01T02:23:46;99169.0;;;11.3;97.09
36834;BME280;48003;52.084;5.224;2023-04-01T02:25:25;99168.0;;;11.55;96.26
36834;BME280;48003;52.084;5.224;2023-04-01T02:28:41;99170.0;;;11.27;97.01
36834;BME280;48003;52.084;5.224;2023-04-01T02:30:19;99170.0;;;11.42;96.67
36834;BME280;48003;52.084;5.224;2023-04-01T02:31:56;99168.0;;;11.36;97.04
36834;BME280;48003;52.084;5.224;2023-04-01T02:33:34;99165.0;;;11.52;95.5
36834;BME280;48003;52.084;5.224;2023-04-01T02:36:50;99168.0;;;11.78;95.16
36834;BME280;48003;52.084;5.224;2023-04-01T02:38:26;99167.0;;;11.94;93.65
36834;BME280;48003;52.084;5.224;2023-04-01T02:40:05;99164.0;;;12.01;93.4
36834;BME280;48003;52.084;5.224;2023-04-01T02:43:21;99171.0;;;11.7;93.9
36834;BME280;48003;52.084;5.224;2023-04-01T02:44:57;99172.0;;;11.74;94.95
36834;BME280;48003;52.084;5.224;2023-04-01T02:46:33;99172.0;;;11.86;94.26
36834;BME280;48003;52.084;5.224;2023-04-01T02:48:09;99174.0;;;12.0;93.24
36834;BME280;48003;52.084;5.224;2023-04-01T02:51:21;99180.0;;;11.47;94.96
36834;BME280;48003;52.084;5.224;2023-04-01T02:52:59;99175.0;;;11.52;94.61
36834;BME280;48003;52.084;5.224;2023-04-01T02:54:35;99175.0;;;11.77;94.2
36834;BME280;48003;52.084;5.224;2023-04-01T02:57:48;99177.0;;;11.56;94.6
36834;BME280;48003;52.084;5.224;2023-04-01T02:59:24;99184.0;;;11.76;94.73
36834;BME280;48003;52.084;5.224;2023-04-01T03:01:00;99184.0;;;11.85;93.32
36834;BME280;48003;52.084;5.224;2023-04-01T03:04:13;99189.0;;;11.91;92.76
36834;BME280;48003;52.084;5.224;2023-04-01T03:05:49;99189.0;;;11.94;92.54
36834;BME280;48003;52.084;5.224;2023-04-01T03:07:25;99191.0;;;11.94;93.53
36834;BME280;48003;52.084;5.224;2023-04-01T03:09:02;99188.0;;;11.51;95.62
36834;BME280;48003;52.084;5.224;2023-04-01T03:12:14;99193.0;;;11.94;93.84
36834;BME280;48003;52.084;5.224;2023-04-01T03:13:50;99201.0;;;11.97;92.59
36834;BME280;48003;52.084;5.224;2023-04-01T03:15:26;99202.0;;;12.14;91.99
36834;BME280;48003;52.084;5.224;2023-04-01T03:18:38;99206.0;;;12.24;91.44
36834;BME280;48003;52.084;5.224;2023-04-01T03:20:15;99203.0;;;12.28;91.12
36834;BME280;48003;52.084;5.224;2023-04-01T03:21:52;99205.0;;;12.12;92.24
36834;BME280;48003;52.084;5.224;2023-04-01T03:25:05;99213.0;;;11.98;93.4
36834;BME280;48003;52.084;5.224;2023-04-01T03:26:42;99213.0;;;12.29;91.59
36834;BME280;48003;52.084;5.224;2023-04-01T03:28:18;99218.0;;;12.3;91.28
36834;BME280;48003;52.084;5.224;2023-04-01T03:31:30;99220.0;;;12.26;91.35
36834;BME280;48003;52.084;5.224;2023-04-01T03:33:07;99224.0;;;12.31;91.34
36834;BME280;48003;52.084;5.224;2023-04-01T03:34:43;99223.0;;;12.31;91.22
36834;BME280;48003;52.084;5.224;2023-04-01T03:36:19;99226.0;;;12.27;91.65
36834;BME280;48003;52.084;5.224;2023-04-01T03:39:31;99233.0;;;12.32;91.4
36834;BME280;48003;52.084;5.224;2023-04-01T03:41:11;99235.0;;;12.33;91.46
36834;BME280;48003;52.084;5.224;2023-04-01T03:42:47;99238.0;;;12.37;91.22
36834;BME280;48003;52.084;5.224;2023-04-01T03:46:01;99234.0;;;12.3;91.89
36834;BME280;48003;52.084;5.224;2023-04-01T03:47:37;99237.0;;;12.35;91.65
36834;BME280;48003;52.084;5.224;2023-04-01T03:49:13;99241.0;;;12.32;91.81
36834;BME280;48003;52.084;5.224;2023-04-01T03:52:25;99239.0;;;12.33;91.76
36834;BME280;48003;52.084;5.224;2023-04-01T03:54:01;99243.0;;;12.35;91.95
36834;BME280;48003;52.084;5.224;2023-04-01T03:55:38;99248.0;;;12.37;91.86
36834;BME280;48003;52.084;5.224;2023-04-01T03:57:14;99246.0;;;12.38;92.04
36834;BME280;48003;52.084;5.224;2023-04-01T04:00:27;99250.0;;;12.45;91.61
36834;BME280;48003;52.084;5.224;2023-04-01T04:02:04;99251.0;;;12.42;91.82
36834;BME280;48003;52.084;5.224;2023-04-01T04:03:40;99255.0;;;12.49;91.58
36834;BME280;48003;52.084;5.224;2023-04-01T04:06:53;99259.0;;;12.47;91.68
36834;BME280;48003;52.084;5.224;2023-04-01T04:08:29;99259.0;;;12.27;92.77
36834;BME280;48003;52.084;5.224;2023-04-01T04:10:06;99264.0;;;12.35;92.75
36834;BME280;48003;52.084;5.224;2023-04-01T04:13:19;99261.0;;;12.31;92.95
36834;BME280;48003;52.084;5.224;2023-04-01T04:14:55;99269.0;;;12.26;93.52
36834;BME280;48003;52.084;5.224;2023-04-01T04:16:35;99269.0;;;12.34;93.19
36834;BME280;48003;52.084;5.224;2023-04-01T04:18:11;99272.0;;;12.16;94.06
36834;BME280;48003;52.084;5.224;2023-04-01T04:21:23;99278.0;;;12.0;94.83
36834;BME280;48003;52.084;5.224;2023-04-01T04:23:00;99286.0;;;12.14;94.81
36834;BME280;48003;52.084;5.224;2023-04-01T04:24:37;99283.0;;;12.2;94.42
36834;BME280;48003;52.084;5.224;2023-04-01T04:27:51;99288.0;;;12.17;94.54
36834;BME280;48003;52.084;5.224;2023-04-01T04:29:27;99290.0;;;12.2;94.31
36834;BME280;48003;52.084;5.224;2023-04-01T04:31:04;99290.0;;;12.19;94.28
36834;BME280;48003;52.084;5.224;2023-04-01T04:34:16;99298.0;;;12.22;94.38
36834;BME280;48003;52.084;5.224;2023-04-01T04:35:55;99296.0;;;12.3;94.04
36834;BME280;48003;52.084;5.224;2023-04-01T04:37:31;99311.0;;;12.3;93.83
36834;BME280;48003;52.084;5.224;2023-04-01T04:39:08;99308.0;;;12.31;93.83
36834;BME280;48003;52.084;5.224;2023-04-01T04:42:21;99314.0;;;12.24;94.16
36834;BME280;48003;52.084;5.224;2023-04-01T04:43:57;99317.0;;;12.24;93.92
36834;BME280;48003;52.084;5.224;2023-04-01T04:45:33;99323.0;;;12.27;93.94
36834;BME280;48003;52.084;5.224;2023-04-01T04:48:45;99320.0;;;12.19;94.27
36834;BME280;48003;52.084;5.224;2023-04-01T04:50:22;99330.0;;;12.16;94.63
36834;BME280;48003;52.084;5.224;2023-04-01T04:51:58;99334.0;;;12.27;94.17
36834;BME280;48003;52.084;5.224;2023-04-01T04:55:12;99337.0;;;12.25;93.74
36834;BME280;48003;52.084;5.224;2023-04-01T04:56:50;99336.0;;;12.3;93.57
36834;BME280;48003;52.084;5.224;2023-04-01T04:58:27;99345.0;;;12.36;93.37
36834;BME280;48003;52.084;5.224;2023-04-01T05:00:04;99352.0;;;12.3;93.38
36834;BME280;48003;52.084;5.224;2023-04-01T05:03:17;99355.0;;;12.3;93.52
36834;BME280;48003;52.084;5.224;2023-04-01T05:04:53;99359.0;;;12.31;93.41
36834;BME280;48003;52.084;5.224;2023-04-01T05:06:30;99361.0;;;12.37;93.09
36834;BME280;48003;52.084;5.224;2023-04-01T05:09:42;99364.0;;;12.32;93.29
36834;BME280;48003;52.084;5.224;2023-04-01T05:11:19;99367.0;;;12.34;93.07
36834;BME280;48003;52.084;5.224;2023-04-01T05:12:55;99368.0;;;12.3;93.29
36834;BME280;48003;52.084;5.224;2023-04-01T05:16:08;99372.0;;;12.35;93.21
36834;BME280;48003;52.084;5.224;2023-04-01T05:17:44;99376.0;;;12.43;92.91
36834;BME280;48003;52.084;5.224;2023-04-01T05:19:20;99376.0;;;12.36;93.35
36834;BME280;48003;52.084;5.224;2023-04-01T05:20:56;99383.0;;;12.42;93.0
36834;BME280;48003;52.084;5.224;2023-04-01T05:24:08;99387.0;;;12.48;92.79
36834;BME280;48003;52.084;5.224;2023-04-01T05:25:44;99384.0;;;12.52;92.6
36834;BME280;48003;52.084;5.224;2023-04-01T05:27:20;99390.0;;;12.39;93.25
36834;BME280;48003;52.084;5.224;2023-04-01T05:30:31;99397.0;;;12.41;93.31
36834;BME280;48003;52.084;5.224;2023-04-01T05:32:07;99409.0;;;12.33;93.42
36834;BME280;48003;52.084;5.224;2023-04-01T05:33:43;99406.0;;;12.4;93.18
36834;BME280;48003;52.084;5.224;2023-04-01T05:36:56;99408.0;;;12.41;93.22
36834;BME280;48003;52.084;5.224;2023-04-01T05:38:32;99412.0;;;12.39;93.36
36834;BME280;48003;52.084;5.224;2023-04-01T05:40:09;99413.0;;;12.42;93.15
36834;BME280;48003;52.084;5.224;2023-04-01T05:41:45;99414.0;;;12.41;92.84
36834;BME280;48003;52.084;5.224;2023-04-01T05:44:57;99416.0;;;12.41;93.11
36834;BME280;48003;52.084;5.224;2023-04-01T05:46:33;99414.0;;;12.43;92.91
36834;BME280;48003;52.084;5.224;2023-04-01T05:48:09;99424.0;;;12.49;92.82
36834;BME280;48003;52.084;5.224;2023-04-01T05:51:22;99424.0;;;12.49;92.7
36834;BME280;48003;52.084;5.224;2023-04-01T05:52:59;99424.0;;;12.48;92.53
36834;BME280;48003;52.084;5.224;2023-04-01T05:54:35;99430.0;;;12.3;93.51
36834;BME280;48003;52.084;5.224;2023-04-01T05:57:47;99430.0;;;12.33;93.53
36834;BME280;48003;52.084;5.224;2023-04-01T05:59:23;99432.0;;;12.36;93.33
36834;BME280;48003;52.084;5.224;2023-04-01T06:01:01;99434.0;;;12.43;93.24
36834;BME280;48003;52.084;5.224;2023-04-01T06:04:15;99440.0;;;12.41;93.41
36834;BME280;48003;52.084;5.224;2023-04-01T06:05:52;99441.0;;;12.37;93.47
36834;BME280;48003;52.084;5.224;2023-04-01T06:07:28;99446.0;;;12.29;93.77
36834;BME280;48003;52.084;5.224;2023-04-01T06:09:13;99449.0;;;12.38;93.65
36834;BME280;48003;52.084;5.224;2023-04-01T06:12:47;99456.0;;;12.34;94.0
36834;BME280;48003;52.084;5.224;2023-04-01T06:14:44;99456.0;;;12.41;93.51
36834;BME280;48003;52.084;5.224;2023-04-01T06:16:33;99462.0;;;12.4;93.51
36834;BME280;48003;52.084;5.224;2023-04-01T06:18:36;99466.0;;;12.41;93.22
36834;BME280;48003;52.084;5.224;2023-04-01T06:21:14;99463.0;;;12.48;93.08
36834;BME280;48003;52.084;5.224;2023-04-01T06:23:20;99472.0;;;12.43;93.22
36834;BME280;48003;52.084;5.224;2023-04-01T06:25:21;99475.0;;;12.34;93.63
36834;BME280;48003;52.084;5.224;2023-04-01T06:27:14;99480.0;;;12.35;93.56
36834;BME280;48003;52.084;5.224;2023-04-01T06:29:14;99478.0;;;12.34;93.41
36834;BME280;48003;52.084;5.224;2023-04-01T06:31:12;99486.0;;;12.29;93.91
36834;BME280;48003;52.084;5.224;2023-04-01T06:33:05;99488.0;;;12.19;94.27
36834;BME280;48003;52.084;5.224;2023-04-01T06:35:53;99495.0;;;12.13;94.55
36834;BME280;48003;52.084;5.224;2023-04-01T06:38:00;99498.0;;;12.19;94.63
36834;BME280;48003;52.084;5.224;2023-04-01T06:41:21;99506.0;;;12.15;94.91
36834;BME280;48003;52.084;5.224;2023-04-01T06:44:16;99510.0;;;12.11;94.98
36834;BME280;48003;52.084;5.224;2023-04-01T06:46:02;99506.0;;;12.04;95.15
36834;BME280;48003;52.084;5.224;2023-04-01T06:47:55;99515.0;;;12.04;95.5
36834;BME280;48003;52.084;5.224;2023-04-01T06:49:46;99525.0;;;12.19;94.88
36834;BME280;48003;52.084;5.224;2023-04-01T06:51:37;99526.0;;;12.27;94.61
36834;BME280;48003;52.084;5.224;2023-04-01T06:53:26;99528.0;;;12.27;94.51
36834;BME280;48003;52.084;5.224;2023-04-01T06:55:24;99531.0;;;12.24;94.54
36834;BME280;48003;52.084;5.224;2023-04-01T06:58:58;99533.0;;;12.26;94.69
36834;BME280;48003;52.084;5.224;2023-04-01T07:00:40;99534.0;;;12.18;94.88
36834;BME280;48003;52.084;5.224;2023-04-01T07:02:24;99537.0;;;12.24;94.56
36834;BME280;48003;52.084;5.224;2023-04-01T07:04:10;99544.0;;;12.26;94.61
36834;BME280;48003;52.084;5.224;2023-04-01T07:05:49;99545.0;;;12.33;94.19
36834;BME280;48003;52.084;5.224;2023-04-01T07:09:13;99546.0;;;12.33;94.31
36834;BME280;48003;52.084;5.224;2023-04-01T07:10:55;99547.0;;;12.3;94.23
36834;BME280;48003;52.084;5.224;2023-04-01T07:12:40;99551.0;;;12.2;94.69
36834;BME280;48003;52.084;5.224;2023-04-01T07:14:22;99556.0;;;12.27;94.51
36834;BME280;48003;52.084;5.224;2023-04-01T07:16:11;99559.0;;;12.3;94.12
36834;BME280;48003;52.084;5.224;2023-04-01T07:19:37;99562.0;;;12.26;94.41
36834;BME280;48003;52.084;5.224;2023-04-01T07:21:23;99568.0;;;12.3;94.2
36834;BME280;48003;52.084;5.224;2023-04-01T07:23:04;99567.0;;;12.3;94.3
36834;BME280;48003;52.084;5.224;2023-04-01T07:24:44;99573.0;;;12.26;94.53
36834;BME280;48003;52.084;5.224;2023-04-01T07:26:23;99580.0;;;12.3;94.43
36834;BME280;48003;52.084;5.224;2023-04-01T07:29:40;99577.0;;;12.33;94.4
36834;BME280;48003;52.084;5.224;2023-04-01T07:31:30;99585.0;;;12.36;94.46
36834;BME280;48003;52.084;5.224;2023-04-01T07:33:12;99592.0;;;12.29;94.54
36834;BME280;48003;52.084;5.224;2023-04-01T07:35:03;99589.0;;;12.22;94.9
36834;BME280;48003;52.084;5.224;2023-04-01T07:36:53;99595.0;;;12.23;94.9
36834;BME280;48003;52.084;5.224;2023-04-01T07:40:31;99598.0;;;12.37;94.64
36834;BME280;48003;52.084;5.224;2023-04-01T07:42:22;99598.0;;;12.38;94.4
36834;BME280;48003;52.084;5.224;2023-04-01T07:44:08;99605.0;;;12.42;94.24
36834;BME280;48003;52.084;5.224;2023-04-01T07:45:59;99605.0;;;12.49;93.93
36834;BME280;48003;52.084;5.224;2023-04-01T07:47:49;99609.0;;;12.51;93.97
36834;BME280;48003;52.084;5.224;2023-04-01T07:49:37;99610.0;;;12.42;94.0
36834;BME280;48003;52.084;5.224;2023-04-01T07:53:10;99612.0;;;12.48;94.16
36834;BME280;48003;52.084;5.224;2023-04-01T07:54:58;99620.0;;;12.53;94.12
36834;BME280;48003;52.084;5.224;2023-04-01T07:56:42;99622.0;;;12.49;94.03
36834;BME280;48003;52.084;5.224;2023-04-01T07:58:29;99622.0;;;12.44;93.94
36834;BME280;48003;52.084;5.224;2023-04-01T08:00:13;99625.0;;;12.49;93.92
36834;BME280;48003;52.084;5.224;2023-04-01T08:02:00;99632.0;;;12.41;94.03
36834;BME280;48003;52.084;5.224;2023-04-01T08:05:54;99636.0;;;12.36;94.19
36834;BME280;48003;52.084;5.224;2023-04-01T08:07:37;99637.0;;;12.34;94.4
36834;BME280;48003;52.084;5.224;2023-04-01T08:09:25;99645.0;;;12.45;94.09
36834;BME280;48003;52.084;5.224;2023-04-01T08:11:14;99643.0;;;12.43;94.35
36834;BME280;48003;52.084;5.224;2023-04-01T08:13:05;99648.0;;;12.43;94.33
36834;BME280;48003;52.084;5.224;2023-04-01T08:14:53;99655.0;;;12.38;94.52
36834;BME280;48003;52.084;5.224;2023-04-01T08:18:27;99658.0;;;12.33;94.53
36834;BME280;48003;52.084;5.224;2023-04-01T08:20:17;99664.0;;;12.45;94.48
36834;BME280;48003;52.084;5.224;2023-04-01T08:22:02;99663.0;;;12.44;94.23
36834;BME280;48003;52.084;5.224;2023-04-01T08:23:41;99668.0;;;12.55;94.16
36834;BME280;48003;52.084;5.224;2023-04-01T08:25:23;99666.0;;;12.6;94.13
36834;BME280;48003;52.084;5.224;2023-04-01T08:27:03;99671.0;;;12.66;93.77
36834;BME280;48003;52.084;5.224;2023-04-01T08:30:35;99672.0;;;12.57;93.91
36834;BME280;48003;52.084;5.224;2023-04-01T08:32:18;99681.0;;;12.6;93.99
36834;BME280;48003;52.084;5.224;2023-04-01T08:34:02;99680.0;;;12.56;94.11
36834;BME280;48003;52.084;5.224;2023-04-01T08:35:42;99683.0;;;12.66;93.89
36834;BME280;48003;52.084;5.224;2023-04-01T08:39:10;99688.0;;;12.75;93.55
36834;BME280;48003;52.084;5.224;2023-04-01T08:40:56;99691.0;;;12.66;93.58
36834;BME280;48003;52.084;5.224;2023-04-01T08:44:40;99702.0;;;12.59;93.59
36834;BME280;48003;52.084;5.224;2023-04-01T08:47:42;99707.0;;;12.56;93.67
36834;BME280;48003;52.084;5.224;2023-04-01T08:51:25;99715.0;;;12.51;94.03
36834;BME280;48003;52.084;5.224;2023-04-01T08:54:20;99713.0;;;12.56;93.92
36834;BME280;48003;52.084;5.224;2023-04-01T08:57:36;99713.0;;;12.68;93.68
36834;BME280;48003;52.084;5.224;2023-04-01T08:59:45;99717.0;;;12.73;93.37
36834;BME280;48003;52.084;5.224;2023-04-01T09:01:52;99720.0;;;12.74;93.24
36834;BME280;48003;52.084;5.224;2023-04-01T09:04:49;99719.0;;;12.69;93.47
36834;BME280;48003;52.084;5.224;2023-04-01T09:06:41;99727.0;;;12.64;93.51
36834;BME280;48003;52.084;5.224;2023-04-01T09:08:33;99726.0;;;12.68;93.62
36834;BME280;48003;52.084;5.224;2023-04-01T09:10:24;99734.0;;;12.67;93.66
36834;BME280;48003;52.084;5.224;2023-04-01T09:13:19;99736.0;;;12.77;93.48
36834;BME280;48003;52.084;5.224;2023-04-01T09:18:49;99742.0;;;12.61;93.87
36834;BME280;48003;52.084;5.224;2023-04-01T09:21:51;99747.0;;;12.68;93.95
36834;BME280;48003;52.084;5.224;2023-04-01T09:23:59;99747.0;;;12.72;93.77
36834;BME280;48003;52.084;5.224;2023-04-01T09:26:14;99751.0;;;12.7;94.1
36834;BME280;48003;52.084;5.224;2023-04-01T09:28:10;99749.0;;;12.7;94.06
36834;BME280;48003;52.084;5.224;2023-04-01T09:30:33;99753.0;;;12.72;93.98
36834;BME280;48003;52.084;5.224;2023-04-01T09:32:40;99758.0;;;12.84;93.88
36834;BME280;48003;52.084;5.224;2023-04-01T09:36:04;99753.0;;;12.85;94.03
36834;BME280;48003;52.084;5.224;2023-04-01T09:37:52;99759.0;;;12.77;94.16
36834;BME280;48003;52.084;5.224;2023-04-01T09:39:35;99761.0;;;12.69;94.49
36834;BME280;48003;52.084;5.224;2023-04-01T09:41:27;99767.0;;;12.74;94.57
36834;BME280;48003;52.084;5.224;2023-04-01T09:43:19;99761.0;;;12.85;94.27
36834;BME280;48003;52.084;5.224;2023-04-01T09:45:07;99767.0;;;12.96;93.94
36834;BME280;48003;52.084;5.224;2023-04-01T09:47:01;99770.0;;;12.95;93.87
36834;BME280;48003;52.084;5.224;2023-04-01T09:49:08;99778.0;;;12.89;94.3
36834;BME280;48003;52.084;5.224;2023-04-01T09:52:20;99774.0;;;12.91;93.9
36834;BME280;48003;52.084;5.224;2023-04-01T09:54:17;99780.0;;;12.89;94.26
36834;BME280;48003;52.084;5.224;2023-04-01T09:57:22;99776.0;;;12.93;94.09
36834;BME280;48003;52.084;5.224;2023-04-01T09:59:28;99782.0;;;12.89;94.14
36834;BME280;48003;52.084;5.224;2023-04-01T10:05:52;99786.0;;;12.95;94.49
36834;BME280;48003;52.084;5.224;2023-04-01T10:09:59;99791.0;;;13.09;94.27
36834;BME280;48003;52.084;5.224;2023-04-01T10:13:17;99800.0;;;13.1;94.16
36834;BME280;48003;52.084;5.224;2023-04-01T10:20:33;99807.0;;;13.18;92.08
36834;BME280;48003;52.084;5.224;2023-04-01T10:22:48;99812.0;;;13.17;92.36
36834;BME280;48003;52.084;5.224;2023-04-01T10:26:23;99810.0;;;13.28;92.39
36834;BME280;48003;52.084;5.224;2023-04-01T10:29:31;99816.0;;;13.2;92.61
36834;BME280;48003;52.084;5.224;2023-04-01T10:33:04;99819.0;;;13.23;92.65
36834;BME280;48003;52.084;5.224;2023-04-01T10:39:32;99818.0;;;13.22;92.14
36834;BME280;48003;52.084;5.224;2023-04-01T10:42:02;99820.0;;;13.36;91.8
36834;BME280;48003;52.084;5.224;2023-04-01T10:45:33;99825.0;;;13.32;91.98
36834;BME280;48003;52.084;5.224;2023-04-01T10:49:10;99823.0;;;13.43;92.0
36834;BME280;48003;52.084;5.224;2023-04-01T10:52:11;99828.0;;;13.58;91.86
36834;BME280;48003;52.084;5.224;2023-04-01T10:56:08;99833.0;;;13.72;91.07
36834;BME280;48003;52.084;5.224;2023-04-01T11:00:37;99832.0;;;13.69;90.75
36834;BME280;48003;52.084;5.224;2023-04-01T11:04:56;99832.0;;;13.73;90.54
36834;BME280;48003;52.084;5.224;2023-04-01T11:06:35;99835.0;;;13.81;90.78
36834;BME280;48003;52.084;5.224;2023-04-01T11:07:54;99835.0;;;13.81;90.78
36834;BME280;48003;52.084;5.224;2023-04-01T11:11:08;99833.0;;;13.74;90.71
36834;BME280;48003;52.084;5.224;2023-04-01T11:14:35;99840.0;;;13.97;90.26
36834;BME280;48003;52.084;5.224;2023-04-01T11:16:28;99839.0;;;14.1;90.65
36834;BME280;48003;52.084;5.224;2023-04-01T11:18:36;99847.0;;;14.04;91.47
36834;BME280;48003;52.084;5.224;2023-04-01T11:19:58;99844.0;;;14.17;91.38
36834;BME280;48003;52.084;5.224;2023-04-01T11:22:33;99842.0;;;14.23;91.07
36834;BME280;48003;52.084;5.224;2023-04-01T11:23:22;99850.0;;;14.19;90.42
36834;BME280;48003;52.084;5.224;2023-04-01T11:25:46;99852.0;;;14.21;89.77
36834;BME280;48003;52.084;5.224;2023-04-01T11:28:03;99853.0;;;14.08;88.83
36834;BME280;48003;52.084;5.224;2023-04-01T11:30:20;99861.0;;;14.07;88.75
36834;BME280;48003;52.084;5.224;2023-04-01T11:32:07;99863.0;;;14.17;88.91
36834;BME280;48003;52.084;5.224;2023-04-01T11:34:00;99863.0;;;14.07;88.13
36834;BME280;48003;52.084;5.224;2023-04-01T11:36:07;99866.0;;;14.14;88.1
36834;BME280;48003;52.084;5.224;2023-04-01T11:38:12;99872.0;;;14.17;87.94
36834;BME280;48003;52.084;5.224;2023-04-01T11:40:02;99876.0;;;14.28;87.61
36834;BME280;48003;52.084;5.224;2023-04-01T11:41:49;99878.0;;;14.42;87.89
36834;BME280;48003;52.084;5.224;2023-04-01T11:45:21;99878.0;;;14.48;87.93
36834;BME280;48003;52.084;5.224;2023-04-01T11:47:30;99883.0;;;14.44;86.73
36834;BME280;48003;52.084;5.224;2023-04-01T11:49:33;99884.0;;;14.54;86.47
36834;BME280;48003;52.084;5.224;2023-04-01T11:51:40;99886.0;;;14.62;86.43
36834;BME280;48003;52.084;5.224;2023-04-01T11:54:07;99888.0;;;14.69;86.08
36834;BME280;48003;52.084;5.224;2023-04-01T11:55:58;99889.0;;;14.69;85.72
36834;BME280;48003;52.084;5.224;2023-04-01T11:58:03;99896.0;;;14.63;85.49
36834;BME280;48003;52.084;5.224;2023-04-01T11:59:53;99895.0;;;14.65;85.1
36834;BME280;48003;52.084;5.224;2023-04-01T12:01:46;99905.0;;;14.68;85.47
36834;BME280;48003;52.084;5.224;2023-04-01T12:04:17;99903.0;;;14.55;84.57
36834;BME280;48003;52.084;5.224;2023-04-01T12:06:02;99911.0;;;14.51;85.53